Time;durP1;ratioP1;P1;durP2;ratioP2;P2;SDS_P1;SDS_P2;PMS_P1;PMS_P2;Temp;Humidity;BMP_temperature;BMP_pressure;BME280_temperature;BME280_humidity;BME280_pressure;Samples;Min_cycle;Max_cycle;Signal;HPM_P1;HPM_P2
2022/12/05 00:01:20;;;;;;;61.90;40.15;;;;;;;;;;5026365;28;20049;-80
2022/12/05 00:03:47;;;;;;;59.67;38.67;;;;;;;;;;5033846;28;20046;-80
2022/12/05 00:06:14;;;;;;;58.10;37.25;;;;;;;;;;5036410;28;20033;-80
2022/12/05 00:08:40;;;;;;;56.25;36.83;;;;;;;;;;5021078;28;20026;-78
2022/12/05 00:11:20;;;;;;;45.88;32.70;;;;;;;;;;5020948;28;20021;-80
2022/12/05 00:13:46;;;;;;;21.83;16.88;;;;;;;;;;5025073;28;20018;-79
2022/12/05 00:16:14;;;;;;;21.40;16.42;;;;;;;;;;5016815;28;20029;-80
2022/12/05 00:18:40;;;;;;;18.35;14.50;;;;;;;;;;5011537;28;20032;-80
2022/12/05 00:21:06;;;;;;;16.42;13.05;;;;;;;;;;5036268;28;20032;-81
2022/12/05 00:23:33;;;;;;;17.98;13.63;;;;;;;;;;5035843;28;20052;-79
2022/12/05 00:26:03;;;;;;;17.90;13.75;;;;;;;;;;5018158;28;20032;-79
2022/12/05 00:28:30;;;;;;;19.70;14.32;;;;;;;;;;5023682;28;20176;-80
2022/12/05 00:30:56;;;;;;;15.55;12.43;;;;;;;;;;5016380;28;20022;-78
2022/12/05 00:33:22;;;;;;;14.88;12.75;;;;;;;;;;5016206;28;20384;-80
2022/12/05 00:35:48;;;;;;;19.10;13.48;;;;;;;;;;4998312;28;20033;-79
2022/12/05 00:38:14;;;;;;;19.17;14.90;;;;;;;;;;5018233;28;20105;-80
2022/12/05 00:40:41;;;;;;;22.80;16.98;;;;;;;;;;5033306;28;20366;-81
2022/12/05 00:43:07;;;;;;;48.92;31.08;;;;;;;;;;5016947;28;20034;-78
2022/12/05 00:45:33;;;;;;;39.03;26.73;;;;;;;;;;5015880;28;20022;-80
2022/12/05 00:47:59;;;;;;;23.48;17.50;;;;;;;;;;4998544;28;20025;-79
2022/12/05 00:50:25;;;;;;;21.30;17.27;;;;;;;;;;5015891;28;20017;-79
2022/12/05 00:52:51;;;;;;;22.80;17.38;;;;;;;;;;5015699;28;20025;-80
2022/12/05 00:55:17;;;;;;;23.40;17.92;;;;;;;;;;5015832;28;20036;-80
2022/12/05 00:57:43;;;;;;;18.63;15.52;;;;;;;;;;5015529;28;20113;-79
2022/12/05 01:00:10;;;;;;;20.27;15.48;;;;;;;;;;5015743;28;20033;-78
2022/12/05 01:02:36;;;;;;;17.05;15.25;;;;;;;;;;5014242;28;20057;-80
2022/12/05 01:05:02;;;;;;;18.70;14.05;;;;;;;;;;5014882;28;20113;-79
2022/12/05 01:07:28;;;;;;;15.88;13.15;;;;;;;;;;5014808;28;20025;-80
2022/12/05 01:09:54;;;;;;;13.93;12.27;;;;;;;;;;5014600;28;20367;-80
2022/12/05 01:12:20;;;;;;;14.18;11.77;;;;;;;;;;5014755;28;20022;-79
2022/12/05 01:14:46;;;;;;;17.85;14.38;;;;;;;;;;5013087;28;20057;-80
2022/12/05 01:17:12;;;;;;;25.85;19.58;;;;;;;;;;5017154;28;20507;-80
2022/12/05 01:19:38;;;;;;;23.73;18.02;;;;;;;;;;5024628;28;20030;-80
2022/12/05 01:22:04;;;;;;;20.08;16.27;;;;;;;;;;5014524;28;20021;-80
2022/12/05 01:24:30;;;;;;;21.38;15.45;;;;;;;;;;5014399;28;20508;-78
2022/12/05 01:26:57;;;;;;;18.52;15.68;;;;;;;;;;5014179;28;20055;-79
2022/12/05 01:29:23;;;;;;;20.33;15.57;;;;;;;;;;5014721;28;20025;-80
2022/12/05 01:31:50;;;;;;;17.00;14.35;;;;;;;;;;5014146;28;20061;-80
2022/12/05 01:34:17;;;;;;;15.40;12.35;;;;;;;;;;5014480;28;20029;-79
2022/12/05 01:36:43;;;;;;;15.65;12.38;;;;;;;;;;4996536;28;20094;-79
2022/12/05 01:39:10;;;;;;;14.98;12.80;;;;;;;;;;5014343;28;20108;-79
2022/12/05 01:41:38;;;;;;;15.88;12.77;;;;;;;;;;5014123;28;20026;-79
2022/12/05 01:44:06;;;;;;;17.13;14.20;;;;;;;;;;5013976;28;20084;-79
2022/12/05 01:46:33;;;;;;;15.40;13.02;;;;;;;;;;5013871;28;20101;-79
2022/12/05 01:49:06;;;;;;;16.02;13.40;;;;;;;;;;5013908;28;20022;-79
2022/12/05 01:51:33;;;;;;;16.73;14.73;;;;;;;;;;5014100;28;20025;-79
2022/12/05 01:53:59;;;;;;;15.85;14.13;;;;;;;;;;5014267;28;20440;-80
2022/12/05 01:56:25;;;;;;;19.15;14.82;;;;;;;;;;5026442;28;20034;-80
2022/12/05 01:58:53;;;;;;;16.92;14.00;;;;;;;;;;5014317;28;20101;-79
2022/12/05 02:01:19;;;;;;;18.23;13.88;;;;;;;;;;5014602;28;20084;-79
2022/12/05 02:03:48;;;;;;;16.05;14.35;;;;;;;;;;5014216;28;20046;-79
2022/12/05 02:06:14;;;;;;;18.52;14.65;;;;;;;;;;5014539;28;20033;-80
2022/12/05 02:08:41;;;;;;;18.23;13.55;;;;;;;;;;5014505;28;20025;-81
2022/12/05 02:11:08;;;;;;;18.13;14.10;;;;;;;;;;5014247;28;20463;-81
2022/12/05 02:13:59;;;;;;;17.48;12.98;;;;;;;;;;5014334;28;20022;-80
2022/12/05 02:16:43;;;;;;;16.98;13.48;;;;;;;;;;5014062;28;20030;-79
2022/12/05 02:19:28;;;;;;;17.25;14.07;;;;;;;;;;5014324;28;20485;-78
2022/12/05 02:21:54;;;;;;;16.40;14.50;;;;;;;;;;5013430;28;20053;-79
2022/12/05 02:24:39;;;;;;;14.40;11.88;;;;;;;;;;5014338;28;20061;-79
2022/12/05 02:27:23;;;;;;;13.30;11.25;;;;;;;;;;4999918;28;20025;-79
2022/12/05 02:29:49;;;;;;;13.93;12.32;;;;;;;;;;4976849;28;20062;-79
2022/12/05 02:32:34;;;;;;;12.95;11.55;;;;;;;;;;4994364;28;20022;-78
2022/12/05 02:35:11;;;;;;;14.30;11.70;;;;;;;;;;5033726;28;20030;-78
2022/12/05 02:37:40;;;;;;;15.45;12.27;;;;;;;;;;5033741;28;20496;-79
2022/12/05 02:40:25;;;;;;;14.73;12.07;;;;;;;;;;5024941;28;20105;-78
2022/12/05 02:42:51;;;;;;;;;;;;;;;;;;5014172;28;20021;-79
2022/12/05 02:45:18;;;;;;;14.23;11.30;;;;;;;;;;5013714;28;20012;-78
2022/12/05 02:48:03;;;;;;;13.25;11.68;;;;;;;;;;5013788;28;20022;-79
2022/12/05 02:50:29;;;;;;;;;;;;;;;;;;5014077;28;20057;-78
2022/12/05 02:52:57;;;;;;;19.27;16.00;;;;;;;;;;5013439;28;19980;-78
2022/12/05 02:55:24;;;;;;;17.55;14.57;;;;;;;;;;5013689;28;20034;-79
2022/12/05 02:57:52;;;;;;;18.40;14.30;;;;;;;;;;5013316;28;20034;-78
2022/12/05 03:00:18;;;;;;;19.80;15.10;;;;;;;;;;5012125;28;20037;-79
2022/12/05 03:02:44;;;;;;;17.70;14.48;;;;;;;;;;5013057;28;20054;-79
2022/12/05 03:05:29;;;;;;;16.60;14.35;;;;;;;;;;5013461;28;20029;-79
2022/12/05 03:07:55;;;;;;;;;;;;;;;;;;5013682;28;20090;-80
2022/12/05 03:10:23;;;;;;;21.10;16.63;;;;;;;;;;5013260;28;19913;-79
2022/12/05 03:12:54;;;;;;;22.30;16.30;;;;;;;;;;5013098;28;20018;-80
2022/12/05 03:15:38;;;;;;;25.83;18.58;;;;;;;;;;5013248;28;20026;-79
2022/12/05 03:18:23;;;;;;;24.77;17.35;;;;;;;;;;5013095;28;20026;-78
2022/12/05 03:20:57;;;;;;;23.05;17.50;;;;;;;;;;5026042;28;20029;-79
2022/12/05 03:23:25;;;;;;;21.75;16.80;;;;;;;;;;5032965;28;20033;-78
2022/12/05 03:26:10;;;;;;;22.88;16.80;;;;;;;;;;5032636;28;20032;-79
2022/12/05 03:28:55;;;;;;;22.88;15.90;;;;;;;;;;5032616;28;20072;-79
2022/12/05 03:31:25;;;;;;;19.80;14.55;;;;;;;;;;5032821;28;20373;-78
2022/12/05 03:33:54;;;;;;;22.50;16.08;;;;;;;;;;5032576;28;20033;-78
2022/12/05 03:36:23;;;;;;;15.73;12.57;;;;;;;;;;5031839;28;20040;-78
2022/12/05 03:38:56;;;;;;;17.85;13.25;;;;;;;;;;5014828;28;20040;-79
2022/12/05 03:41:31;;;;;;;19.88;15.52;;;;;;;;;;5004225;28;20080;-80
2022/12/05 03:44:01;;;;;;;26.80;23.88;;;;;;;;;;5012287;28;20104;-79
2022/12/05 03:46:46;;;;;;;25.02;18.95;;;;;;;;;;5012132;28;20017;-79
2022/12/05 03:49:12;;;;;;;;;;;;;;;;;;4993530;28;20030;-80
2022/12/05 03:51:43;;;;;;;27.38;16.05;;;;;;;;;;5001045;28;20275;-80
2022/12/05 03:54:30;;;;;;;22.73;16.15;;;;;;;;;;4995153;28;20547;-81
2022/12/05 03:57:03;;;;;;;17.70;12.75;;;;;;;;;;5013486;28;20073;-81
2022/12/05 03:59:32;;;;;;;16.35;12.57;;;;;;;;;;5012391;28;20030;-80
2022/12/05 04:02:00;;;;;;;18.15;12.40;;;;;;;;;;5012277;28;20149;-80
2022/12/05 04:04:29;;;;;;;15.48;12.23;;;;;;;;;;5025158;28;20041;-80
2022/12/05 04:06:58;;;;;;;13.90;11.13;;;;;;;;;;5026831;28;20038;-79
2022/12/05 04:09:29;;;;;;;12.65;10.23;;;;;;;;;;5023470;28;20033;-79
2022/12/05 04:12:00;;;;;;;10.52;9.00;;;;;;;;;;5032250;28;20424;-79
2022/12/05 04:14:45;;;;;;;16.70;10.85;;;;;;;;;;5032011;28;20022;-80
2022/12/05 04:17:12;;;;;;;;;;;;;;;;;;5032364;28;20030;-80
2022/12/05 04:22:29;;;;;;;18.45;11.40;;;;;;;;;;5027132;28;20044;-81
2022/12/05 04:27:41;;;;;;;14.73;10.68;;;;;;;;;;5012647;28;20036;-81
2022/12/05 04:30:10;;;;;;;13.15;9.98;;;;;;;;;;5012393;28;20022;-80
2022/12/05 04:32:45;;;;;;;13.68;11.07;;;;;;;;;;5012201;28;20022;-79
2022/12/05 04:35:16;;;;;;;14.80;10.82;;;;;;;;;;5012153;28;20163;-80
2022/12/05 04:37:44;;;;;;;14.90;10.95;;;;;;;;;;5012357;28;20535;-80
2022/12/05 04:40:22;;;;;;;14.73;11.10;;;;;;;;;;5012195;28;20036;-79
2022/12/05 04:42:51;;;;;;;23.30;18.42;;;;;;;;;;5012220;28;20385;-79
2022/12/05 04:45:19;;;;;;;27.83;21.40;;;;;;;;;;5011840;28;20081;-80
2022/12/05 04:47:48;;;;;;;20.75;15.52;;;;;;;;;;5024102;28;20018;-80
2022/12/05 04:50:14;;;;;;;17.83;14.50;;;;;;;;;;5035342;28;20037;-80
2022/12/05 04:52:41;;;;;;;16.85;12.48;;;;;;;;;;5032478;28;20022;-81
2022/12/05 04:55:27;;;;;;;18.30;12.70;;;;;;;;;;4997922;28;20026;-83
2022/12/05 04:57:56;;;;;;;17.90;15.05;;;;;;;;;;5019672;28;20021;-80
2022/12/05 05:00:22;;;;;;;18.13;14.93;;;;;;;;;;5030661;28;20034;-80
2022/12/05 05:02:58;;;;;;;29.98;21.83;;;;;;;;;;5015177;28;20053;-80
2022/12/05 05:05:24;;;;;;;27.15;20.58;;;;;;;;;;5009885;28;20070;-81
2022/12/05 05:07:52;;;;;;;35.90;25.73;;;;;;;;;;5003016;28;20026;-81
2022/12/05 05:10:36;;;;;;;31.50;26.33;;;;;;;;;;5034600;28;20024;-82
2022/12/05 05:13:02;;;;;;;32.45;25.23;;;;;;;;;;5035348;28;20030;-80
2022/12/05 05:15:29;;;;;;;34.72;25.60;;;;;;;;;;5034364;28;20480;-82
2022/12/05 05:17:55;;;;;;;23.95;17.60;;;;;;;;;;5034865;28;20547;-80
2022/12/05 05:20:24;;;;;;;31.15;23.38;;;;;;;;;;5017286;28;20468;-82
2022/12/05 05:22:51;;;;;;;22.13;17.27;;;;;;;;;;5035061;28;20076;-81
2022/12/05 05:25:17;;;;;;;21.77;16.73;;;;;;;;;;5034815;28;20108;-80
2022/12/05 05:27:47;;;;;;;34.38;25.95;;;;;;;;;;5016976;28;20025;-82
2022/12/05 05:30:13;;;;;;;19.23;14.55;;;;;;;;;;5034995;28;20485;-85
2022/12/05 05:32:39;;;;;;;17.63;12.48;;;;;;;;;;5015939;28;20021;-84
2022/12/05 05:35:06;;;;;;;17.90;13.23;;;;;;;;;;5016115;28;20045;-84
2022/12/05 05:37:35;;;;;;;18.55;13.10;;;;;;;;;;5008264;28;20108;-84
2022/12/05 05:40:01;;;;;;;13.65;11.07;;;;;;;;;;5014595;28;20026;-85
2022/12/05 05:42:30;;;;;;;15.35;11.15;;;;;;;;;;5008813;28;20022;-85
2022/12/05 05:45:02;;;;;;;25.45;17.20;;;;;;;;;;4999835;28;20443;-83
2022/12/05 05:48:01;;;;;;;42.05;27.60;;;;;;;;;;4999486;28;20041;-83
2022/12/05 05:50:45;;;;;;;47.33;33.85;;;;;;;;;;4933022;29;20111;-84
2022/12/05 05:53:19;;;;;;;62.42;41.90;;;;;;;;;;4897119;29;20499;-84
2022/12/05 05:56:04;;;;;;;52.03;38.17;;;;;;;;;;4915028;29;20514;-83
2022/12/05 05:58:35;;;;;;;64.13;43.80;;;;;;;;;;4934914;29;20558;-84
2022/12/05 06:01:19;;;;;;;52.85;36.85;;;;;;;;;;4918166;29;20036;-86
2022/12/05 06:03:53;;;;;;;42.90;31.80;;;;;;;;;;4932788;29;20058;-84
2022/12/05 06:06:32;;;;;;;;;;;;;;;;;;4919059;29;20043;-84
2022/12/05 06:08:58;;;;;;;42.45;30.40;;;;;;;;;;4934391;29;19906;-84
2022/12/05 06:14:22;;;;;;;36.78;27.38;;;;;;;;;;4934720;29;20428;-85
2022/12/05 06:17:33;;;;;;;39.00;28.90;;;;;;;;;;4922573;28;20050;-84
2022/12/05 06:20:31;;;;;;;42.78;31.13;;;;;;;;;;4922679;29;20036;-84
2022/12/05 06:22:57;;;;;;;78.20;50.78;;;;;;;;;;5012029;28;20037;-83
2022/12/05 06:25:29;;;;;;;85.13;53.65;;;;;;;;;;5012995;28;20037;-86
2022/12/05 06:27:55;;;;;;;96.85;64.63;;;;;;;;;;4993201;28;20022;-80
2022/12/05 06:30:21;;;;;;;66.90;46.58;;;;;;;;;;5012018;28;20018;-82
2022/12/05 06:32:47;;;;;;;41.78;32.03;;;;;;;;;;5017672;28;20021;-81
2022/12/05 06:35:16;;;;;;;57.13;45.00;;;;;;;;;;5000133;28;20026;-79
2022/12/05 06:37:43;;;;;;;27.92;21.35;;;;;;;;;;5016028;28;20021;-80
2022/12/05 06:40:10;;;;;;;49.20;28.67;;;;;;;;;;5012401;28;20105;-79
2022/12/05 06:42:36;;;;;;;46.83;30.55;;;;;;;;;;5012336;28;20037;-80
2022/12/05 06:45:02;;;;;;;48.55;33.53;;;;;;;;;;5011205;28;20034;-78
2022/12/05 06:47:28;;;;;;;42.20;29.67;;;;;;;;;;4992330;28;20030;-78
2022/12/05 06:49:54;;;;;;;43.25;28.45;;;;;;;;;;5006590;28;20017;-80
2022/12/05 06:52:20;;;;;;;52.78;34.88;;;;;;;;;;5008616;28;20526;-81
2022/12/05 06:54:47;;;;;;;77.10;55.35;;;;;;;;;;5012466;28;20040;-81
2022/12/05 06:57:13;;;;;;;65.10;45.33;;;;;;;;;;5014260;28;20489;-83
2022/12/05 06:59:39;;;;;;;42.95;33.00;;;;;;;;;;4993094;28;20033;-84
2022/12/05 07:02:13;;;;;;;46.28;35.83;;;;;;;;;;5016183;28;20036;-85
2022/12/05 07:04:39;;;;;;;;;;;;;;;;;;4999733;28;20073;-83
2022/12/05 07:07:05;;;;;;;28.52;22.80;;;;;;;;;;5011751;28;19909;-82
2022/12/05 07:12:16;;;;;;;;;;;;;;;;;;5000328;28;20052;-81
2022/12/05 07:14:43;;;;;;;14.85;11.50;;;;;;;;;;5011299;28;20349;-81
2022/12/05 07:17:09;;;;;;;21.13;13.70;;;;;;;;;;5011241;28;20109;-82
2022/12/05 07:19:35;;;;;;;30.02;18.55;;;;;;;;;;5001869;28;20034;-82
2022/12/05 07:22:02;;;;;;;49.13;31.42;;;;;;;;;;4974752;28;20441;-81
2022/12/05 07:24:28;;;;;;;38.65;24.90;;;;;;;;;;5011398;28;20030;-82
2022/12/05 07:26:54;;;;;;;42.38;20.15;;;;;;;;;;5008970;28;20469;-83
2022/12/05 07:29:20;;;;;;;58.35;38.63;;;;;;;;;;5009573;28;20073;-82
2022/12/05 07:31:46;;;;;;;49.13;24.92;;;;;;;;;;5017751;28;20413;-82
2022/12/05 07:34:12;;;;;;;220.15;65.47;;;;;;;;;;5007038;28;20148;-86
2022/12/05 07:36:38;;;;;;;272.38;82.85;;;;;;;;;;5030448;28;20030;-83
2022/12/05 07:39:04;;;;;;;233.07;72.93;;;;;;;;;;5010866;28;20040;-83
2022/12/05 07:41:35;;;;;;;215.32;72.43;;;;;;;;;;5011337;28;20048;-85
2022/12/05 07:44:02;;;;;;;211.68;65.68;;;;;;;;;;4993380;28;20109;-81
2022/12/05 07:46:32;;;;;;;186.60;66.18;;;;;;;;;;5009676;28;20030;-85
2022/12/05 07:48:58;;;;;;;140.50;50.95;;;;;;;;;;4992735;28;20571;-86
2022/12/05 07:51:24;;;;;;;139.07;51.97;;;;;;;;;;5010184;28;20033;-79
2022/12/05 07:53:50;;;;;;;130.30;48.28;;;;;;;;;;4993364;28;20022;-82
2022/12/05 07:56:17;;;;;;;30.02;17.20;;;;;;;;;;5011208;28;20033;-80
2022/12/05 07:58:47;;;;;;;26.25;14.98;;;;;;;;;;5005396;28;20049;-84
2022/12/05 08:01:14;;;;;;;18.67;9.98;;;;;;;;;;5001625;28;20676;-84
2022/12/05 08:03:41;;;;;;;31.27;19.42;;;;;;;;;;5013030;28;20058;-81
2022/12/05 08:06:10;;;;;;;30.65;22.10;;;;;;;;;;5008825;28;20026;-80
2022/12/05 08:08:36;;;;;;;19.65;14.13;;;;;;;;;;5005500;28;20045;-83
2022/12/05 08:11:21;;;;;;;20.65;14.13;;;;;;;;;;4999523;28;20022;-81
2022/12/05 08:13:48;;;;;;;25.58;12.00;;;;;;;;;;5008803;28;20489;-82
2022/12/05 08:16:15;;;;;;;14.13;10.23;;;;;;;;;;5010828;28;20029;-85
2022/12/05 08:18:42;;;;;;;21.08;11.73;;;;;;;;;;5010889;28;20408;-83
2022/12/05 08:21:13;;;;;;;16.85;10.93;;;;;;;;;;5010864;28;20033;-85
2022/12/05 08:23:39;;;;;;;29.13;16.80;;;;;;;;;;5018228;28;20389;-78
2022/12/05 08:26:07;;;;;;;18.73;12.95;;;;;;;;;;5012888;28;20068;-83
2022/12/05 08:28:33;;;;;;;27.15;15.35;;;;;;;;;;5014689;28;20022;-78
2022/12/05 08:31:06;;;;;;;19.95;12.45;;;;;;;;;;4996965;28;20073;-80
2022/12/05 08:33:32;;;;;;;39.63;17.02;;;;;;;;;;5002491;28;20093;-80
2022/12/05 08:36:06;;;;;;;85.03;26.65;;;;;;;;;;5017322;28;20039;-82
2022/12/05 08:38:32;;;;;;;76.05;27.08;;;;;;;;;;5033559;28;20481;-79
2022/12/05 08:41:02;;;;;;;400.13;119.07;;;;;;;;;;5033241;28;20585;-79
2022/12/05 08:43:29;;;;;;;420.38;134.73;;;;;;;;;;5014538;28;20030;-81
2022/12/05 08:45:55;;;;;;;441.17;151.32;;;;;;;;;;5009623;28;20037;-80
2022/12/05 08:48:22;;;;;;;414.85;135.98;;;;;;;;;;5012955;28;20030;-79
2022/12/05 08:50:49;;;;;;;101.57;35.38;;;;;;;;;;5009697;28;20060;-84
2022/12/05 08:53:15;;;;;;;78.88;26.45;;;;;;;;;;5005543;28;20097;-82
2022/12/05 08:55:41;;;;;;;81.40;29.17;;;;;;;;;;4994217;28;20039;-82
2022/12/05 08:58:07;;;;;;;80.82;25.45;;;;;;;;;;4997717;28;20488;-83
2022/12/05 09:00:33;;;;;;;102.05;31.85;;;;;;;;;;5010805;28;20084;-80
2022/12/05 09:02:59;;;;;;;68.65;23.90;;;;;;;;;;5008897;28;20485;-84
2022/12/05 09:05:26;;;;;;;66.63;22.10;;;;;;;;;;5012071;28;20039;-83
2022/12/05 09:07:52;;;;;;;80.82;28.40;;;;;;;;;;4991491;28;20761;-83
2022/12/05 09:10:18;;;;;;;54.00;20.88;;;;;;;;;;4985095;28;20422;-85
2022/12/05 09:12:53;;;;;;;76.20;24.27;;;;;;;;;;4996221;28;20049;-88
2022/12/05 09:15:19;;;;;;;;;;;;;;;;;;5012565;28;20034;-85
2022/12/05 09:17:46;;;;;;;96.97;59.60;;;;;;;;;;5014252;28;19905;-84
2022/12/05 09:20:19;;;;;;;37.13;19.45;;;;;;;;;;5013263;28;20084;-86
2022/12/05 09:22:45;;;;;;;30.58;12.88;;;;;;;;;;4994459;28;20413;-86
2022/12/05 09:25:11;;;;;;;28.75;13.23;;;;;;;;;;4990568;28;20035;-86
2022/12/05 09:27:40;;;;;;;17.70;9.57;;;;;;;;;;5012620;28;20040;-85
2022/12/05 09:30:13;;;;;;;16.88;8.95;;;;;;;;;;5012140;28;20060;-86
2022/12/05 09:32:39;;;;;;;25.80;12.35;;;;;;;;;;5014412;28;20038;-87
2022/12/05 09:35:08;;;;;;;47.88;18.25;;;;;;;;;;5012219;28;20089;-86
2022/12/05 09:37:34;;;;;;;36.42;14.05;;;;;;;;;;5003715;28;20442;-87
2022/12/05 09:40:03;;;;;;;58.83;20.73;;;;;;;;;;4987385;28;20046;-85
2022/12/05 09:42:31;;;;;;;46.38;19.02;;;;;;;;;;4979670;28;20041;-86
2022/12/05 09:45:16;;;;;;;24.02;12.40;;;;;;;;;;5006337;28;20060;-87
2022/12/05 09:47:49;;;;;;;68.78;25.73;;;;;;;;;;4995803;28;20358;-82
2022/12/05 09:50:15;;;;;;;20.35;11.30;;;;;;;;;;5033507;28;20029;-84
2022/12/05 09:53:03;;;;;;;90.30;34.67;;;;;;;;;;5017483;28;20035;-87
2022/12/05 09:58:49;;;;;;;33.33;15.25;;;;;;;;;;5007779;28;20026;-83
2022/12/05 10:01:36;;;;;;;24.95;16.20;;;;;;;;;;5004528;28;20408;-85
2022/12/05 10:04:16;;;;;;;17.73;11.07;;;;;;;;;;5014155;28;20046;-84
2022/12/05 10:06:42;;;;;;;58.92;22.85;;;;;;;;;;4999537;28;20080;-85
2022/12/05 10:09:11;;;;;;;26.00;12.63;;;;;;;;;;5010214;28;20027;-85
2022/12/05 10:11:40;;;;;;;20.20;11.48;;;;;;;;;;5016938;28;20157;-83
2022/12/05 10:14:30;;;;;;;22.60;12.50;;;;;;;;;;5021817;28;20102;-82
2022/12/05 10:16:58;;;;;;;43.58;18.30;;;;;;;;;;5012401;28;20177;-83
2022/12/05 10:19:24;;;;;;;57.72;24.40;;;;;;;;;;4996243;28;20097;-82
2022/12/05 10:21:57;;;;;;;48.50;20.80;;;;;;;;;;5012218;28;20525;-83
2022/12/05 10:24:33;;;;;;;37.58;16.23;;;;;;;;;;5004360;28;20134;-83
2022/12/05 10:27:02;;;;;;;94.68;43.63;;;;;;;;;;5010550;28;20026;-81
2022/12/05 10:29:57;;;;;;;147.27;61.42;;;;;;;;;;4992931;28;20041;-85
2022/12/05 10:32:43;;;;;;;93.80;38.80;;;;;;;;;;4990946;28;20034;-85
2022/12/05 10:35:27;;;;;;;103.88;41.55;;;;;;;;;;5011353;28;20030;-86
2022/12/05 10:38:03;;;;;;;66.93;27.10;;;;;;;;;;4994887;28;20025;-84
2022/12/05 10:40:40;;;;;;;15.95;8.82;;;;;;;;;;4994622;28;20474;-87
2022/12/05 10:43:07;;;;;;;23.73;12.25;;;;;;;;;;4980353;28;20026;-84
2022/12/05 10:45:36;;;;;;;33.80;14.98;;;;;;;;;;5005074;28;20061;-83
2022/12/05 10:48:02;;;;;;;11.15;6.60;;;;;;;;;;5011557;28;20034;-84
2022/12/05 10:50:30;;;;;;;23.17;15.35;;;;;;;;;;4998624;28;20030;-85
2022/12/05 10:52:58;;;;;;;13.80;9.88;;;;;;;;;;5001110;28;20026;-84
2022/12/05 10:55:28;;;;;;;11.52;7.97;;;;;;;;;;4995999;28;20030;-82
2022/12/05 10:58:09;;;;;;;16.13;9.88;;;;;;;;;;5000894;28;20114;-83
2022/12/05 11:00:36;;;;;;;24.77;12.18;;;;;;;;;;5009608;28;20544;-83
2022/12/05 11:03:05;;;;;;;12.30;8.45;;;;;;;;;;5010096;28;20624;-86
2022/12/05 11:05:33;;;;;;;39.55;17.15;;;;;;;;;;5005377;28;20525;-85
2022/12/05 11:08:00;;;;;;;21.90;13.15;;;;;;;;;;4981093;28;20425;-82
2022/12/05 11:10:30;;;;;;;33.83;15.13;;;;;;;;;;5007724;28;20034;-82
2022/12/05 11:12:57;;;;;;;87.95;32.22;;;;;;;;;;4991618;28;20034;-85
2022/12/05 11:15:24;;;;;;;30.98;15.02;;;;;;;;;;5010850;28;20437;-86
2022/12/05 11:17:59;;;;;;;30.35;14.18;;;;;;;;;;4994302;28;20112;-87
2022/12/05 11:20:28;;;;;;;;;;;;;;;;;;4996791;28;20476;-86
2022/12/05 11:22:55;;;;;;;18.23;11.88;;;;;;;;;;5007306;28;19917;-87
2022/12/05 11:25:30;;;;;;;28.58;17.40;;;;;;;;;;5005568;28;20124;-84
2022/12/05 11:27:56;;;;;;;88.85;64.43;;;;;;;;;;5011988;28;20101;-83
2022/12/05 11:30:26;;;;;;;84.75;29.98;;;;;;;;;;5018774;28;20026;-86
2022/12/05 11:33:10;;;;;;;33.80;14.40;;;;;;;;;;5020319;28;20025;-84
2022/12/05 11:35:40;;;;;;;8.52;6.35;;;;;;;;;;5005432;28;20069;-81
2022/12/05 11:38:07;;;;;;;16.48;8.82;;;;;;;;;;4993822;28;20031;-84
2022/12/05 11:40:35;;;;;;;48.53;18.85;;;;;;;;;;4998810;28;20034;-83
2022/12/05 11:43:04;;;;;;;51.65;20.25;;;;;;;;;;5004993;28;20097;-87
2022/12/05 11:45:35;;;;;;;23.40;11.82;;;;;;;;;;5018986;28;20377;-78
2022/12/05 11:48:24;;;;;;;63.22;25.20;;;;;;;;;;5009785;28;20026;-81
2022/12/05 11:51:03;;;;;;;11.38;7.10;;;;;;;;;;4991164;28;20029;-87
2022/12/05 11:53:53;;;;;;;66.00;22.42;;;;;;;;;;5010782;28;20014;-83
2022/12/05 11:56:38;;;;;;;22.13;9.63;;;;;;;;;;5010426;28;20370;-84
2022/12/05 11:59:22;;;;;;;217.60;79.10;;;;;;;;;;5009976;28;20034;-84
2022/12/05 12:02:13;;;;;;;289.35;99.65;;;;;;;;;;5011226;28;20026;-87
2022/12/05 12:04:57;;;;;;;383.85;128.02;;;;;;;;;;5006644;28;20054;-84
2022/12/05 12:07:39;;;;;;;148.05;58.58;;;;;;;;;;5000499;28;20034;-84
2022/12/05 12:10:23;;;;;;;20.35;9.48;;;;;;;;;;5008199;28;20048;-84
2022/12/05 12:12:49;;;;;;;;;;;;;;;;;;5008560;28;20026;-84
2022/12/05 12:15:28;;;;;;;12.65;6.97;;;;;;;;;;5006560;28;19916;-82
2022/12/05 12:18:13;;;;;;;14.40;7.65;;;;;;;;;;4996749;28;20500;-83
2022/12/05 12:20:56;;;;;;;19.80;11.25;;;;;;;;;;4998829;28;20494;-84
2022/12/05 12:23:25;;;;;;;12.05;6.95;;;;;;;;;;5001822;28;20026;-81
2022/12/05 12:26:18;;;;;;;11.30;6.40;;;;;;;;;;5009913;28;20087;-83
2022/12/05 12:29:13;;;;;;;18.00;9.00;;;;;;;;;;4975840;28;20042;-84
2022/12/05 12:31:53;;;;;;;18.10;9.02;;;;;;;;;;4994286;28;20104;-85
2022/12/05 12:34:32;;;;;;;18.60;8.57;;;;;;;;;;5004308;28;20065;-84
2022/12/05 12:37:06;;;;;;;14.75;7.40;;;;;;;;;;5009566;28;20026;-83
2022/12/05 12:39:32;;;;;;;;;;;;;;;;;;4994000;28;20092;-82
2022/12/05 12:42:38;;;;;;;27.63;11.73;;;;;;;;;;4990525;28;19909;-82
2022/12/05 12:45:15;;;;;;;46.90;29.45;;;;;;;;;;5008795;28;20038;-86
2022/12/05 12:47:50;;;;;;;27.55;16.15;;;;;;;;;;5008484;28;20038;-85
2022/12/05 12:50:24;;;;;;;32.28;20.58;;;;;;;;;;4993714;28;20453;-85
2022/12/05 12:52:50;;;;;;;;;;;;;;;;;;5011612;28;20022;-84
2022/12/05 12:55:35;;;;;;;16.33;7.57;;;;;;;;;;4993809;28;19912;-83
2022/12/05 12:58:01;;;;;;;20.80;8.57;;;;;;;;;;4993869;28;20419;-83
2022/12/05 13:00:27;;;;;;;25.70;10.60;;;;;;;;;;4992925;28;20093;-85
2022/12/05 13:03:01;;;;;;;151.18;101.82;;;;;;;;;;5003008;28;20061;-82
2022/12/05 13:05:46;;;;;;;80.78;31.75;;;;;;;;;;4988243;28;20026;-85
2022/12/05 13:08:31;;;;;;;56.83;19.20;;;;;;;;;;5011178;28;20354;-85
2022/12/05 13:11:08;;;;;;;51.70;17.15;;;;;;;;;;5008539;28;20025;-83
2022/12/05 13:13:36;;;;;;;20.88;5.88;;;;;;;;;;4996006;28;20449;-83
2022/12/05 13:16:06;;;;;;;76.93;20.55;;;;;;;;;;5012768;28;20030;-83
2022/12/05 13:18:32;;;;;;;51.90;14.57;;;;;;;;;;5013691;28;20473;-80
2022/12/05 13:21:05;;;;;;;27.60;9.95;;;;;;;;;;5013731;28;20034;-81
2022/12/05 13:23:33;;;;;;;28.02;11.00;;;;;;;;;;5013943;28;20496;-83
2022/12/05 13:26:00;;;;;;;28.98;16.23;;;;;;;;;;5014010;28;20500;-81
2022/12/05 13:28:31;;;;;;;34.95;14.82;;;;;;;;;;4999763;28;20026;-81
2022/12/05 13:31:02;;;;;;;492.70;140.82;;;;;;;;;;5013718;28;20425;-80
2022/12/05 13:33:47;;;;;;;822.55;273.25;;;;;;;;;;5014341;28;20014;-84
2022/12/05 13:44:33;;;;;;;56.65;16.60;;;;;;;;;;4995988;28;20197;-82
2022/12/05 13:47:00;;;;;;;30.08;9.43;;;;;;;;;;4994577;28;20030;-85
2022/12/05 13:49:45;;;;;;;21.20;9.85;;;;;;;;;;5006122;28;20049;-86
2022/12/05 13:52:18;;;;;;;20.77;8.05;;;;;;;;;;5012846;28;20420;-85
2022/12/05 13:54:46;;;;;;;15.25;6.93;;;;;;;;;;5013479;28;20034;-81
2022/12/05 13:57:31;;;;;;;16.13;7.00;;;;;;;;;;5019614;28;20026;-84
2022/12/05 13:59:57;;;;;;;;;;;;;;;;;;5014353;28;20026;-84
2022/12/05 14:02:46;;;;;;;40.75;12.82;;;;;;;;;;5013398;28;19992;-84
2022/12/05 14:05:17;;;;;;;73.38;20.65;;;;;;;;;;5004161;28;20515;-83
2022/12/05 14:07:45;;;;;;;31.77;10.60;;;;;;;;;;5013512;28;20030;-82
2022/12/05 14:10:31;;;;;;;93.30;26.65;;;;;;;;;;5013790;28;20121;-82
2022/12/05 14:12:59;;;;;;;42.03;14.73;;;;;;;;;;5003352;28;20053;-84
2022/12/05 14:15:31;;;;;;;18.85;7.50;;;;;;;;;;5012937;28;20068;-85
2022/12/05 14:18:17;;;;;;;39.05;11.85;;;;;;;;;;4996155;28;20108;-82
2022/12/05 14:21:02;;;;;;;32.92;11.90;;;;;;;;;;4996824;28;20089;-81
2022/12/05 14:23:51;;;;;;;377.55;107.20;;;;;;;;;;5013296;28;20053;-82
2022/12/05 14:26:36;;;;;;;54.42;19.63;;;;;;;;;;4983039;28;20077;-82
2022/12/05 14:29:24;;;;;;;16.77;7.18;;;;;;;;;;5016367;28;20073;-84
2022/12/05 14:32:08;;;;;;;13.57;5.00;;;;;;;;;;5017186;28;20022;-85
2022/12/05 14:34:34;;;;;;;;;;;;;;;;;;5019296;28;20026;-82
2022/12/05 14:37:06;;;;;;;17.77;7.07;;;;;;;;;;5012436;28;19910;-83
2022/12/05 14:39:35;;;;;;;12.63;5.97;;;;;;;;;;5013101;28;20017;-84
2022/12/05 14:42:03;;;;;;;24.67;10.43;;;;;;;;;;5013890;28;20529;-81
2022/12/05 14:44:32;;;;;;;19.35;11.35;;;;;;;;;;5015926;28;20033;-82
2022/12/05 14:47:04;;;;;;;20.48;11.20;;;;;;;;;;5013116;28;20030;-84
2022/12/05 14:49:34;;;;;;;14.68;10.77;;;;;;;;;;5012345;28;20014;-82
2022/12/05 14:52:08;;;;;;;19.48;11.00;;;;;;;;;;5013331;28;20033;-83
2022/12/05 14:54:34;;;;;;;21.33;10.80;;;;;;;;;;5012978;28;20036;-85
2022/12/05 14:57:09;;;;;;;20.33;10.48;;;;;;;;;;5012652;28;20493;-84
2022/12/05 14:59:54;;;;;;;30.15;14.07;;;;;;;;;;5013445;28;20524;-85
2022/12/05 15:02:29;;;;;;;31.27;15.60;;;;;;;;;;4995400;28;20045;-85
2022/12/05 15:05:05;;;;;;;40.35;26.38;;;;;;;;;;5012834;28;20025;-85
2022/12/05 15:07:38;;;;;;;99.65;74.35;;;;;;;;;;5015577;28;20495;-83
2022/12/05 15:10:06;;;;;;;;;;;;;;;;;;5013642;28;20049;-80
2022/12/05 15:12:40;;;;;;;64.47;48.05;;;;;;;;;;5012400;28;19992;-81